Hawksview Airstrip

GB-0764 · Angleterre, Royaume-Uni

METAR anciennes GB-0764 · Hawksview Airstrip

Tu vois ci-dessous les METAR des derniers jours. Sélectionne une année pour parcourir les METAR plus anciens, à partir de l'année 2007.

17 juillet 2024

Temps Code Temps Temp. Vue Base cloud Vent METAR/SPECI
22:20
V
17 °C 10 km+ - Var Var 2 kt METAR EGCC 172120Z AUTO VRB02KT 9999 NCD 17/13 Q1020
21:50
V
18 °C 10 km+ - Var Var 2 kt METAR EGCC 172050Z AUTO VRB02KT 9999 NCD 18/13 Q1020 NOSIG
21:20
V
18 °C 10 km+ - 130° 130° 3 kt METAR EGCC 172020Z AUTO 13003KT 100V170 9999 NCD 18/13 Q1019
20:50
V
19 °C 10 km+ - Var Var 2 kt METAR EGCC 171950Z AUTO VRB02KT 9999 NCD 19/13 Q1019 NOSIG
20:20
V
20 °C 10 km+ - Var Var 2 kt METAR EGCC 171920Z VRB02KT CAVOK 20/13 Q1019
19:50
V
20 °C 10 km+ - Var Var 1 kt METAR EGCC 171850Z VRB01KT CAVOK 20/13 Q1019 NOSIG
19:20
V
21 °C 10 km+ - 180° 180° 3 kt METAR EGCC 171820Z 18003KT 140V220 CAVOK 21/13 Q1019
18:50
V
21 °C 10 km+ - Var Var 2 kt METAR EGCC 171750Z AUTO VRB02KT 9999 NCD 21/13 Q1019 NOSIG
18:20
M
22 °C 5 km - Var Var 2 kt METAR EGCC 171720Z AUTO VRB02KT 5000 HZ NCD 22/12 Q1019
17:50
V
22 °C 10 km+ - 170° 170° 3 kt METAR EGCC 171650Z 17003KT 090V220 CAVOK 22/13 Q1019
17:20
V
22 °C 10 km+ - 180° 180° 4 kt METAR EGCC 171620Z AUTO 18004KT 140V220 9999 SCT044 22/13 Q1019
16:50
V
22 °C 10 km+ - Var Var 2 kt METAR EGCC 171550Z AUTO VRB02KT 9999 NCD 22/12 Q1019 NOSIG
16:20
V
22 °C 10 km+ - 170° 170° 3 kt METAR EGCC 171520Z 17003KT 110V220 CAVOK 22/12 Q1020
15:50
V
21 °C 10 km+ - Var Var 2 kt METAR EGCC 171450Z VRB02KT CAVOK 21/12 Q1020 NOSIG
15:20
V
22 °C 10 km+ - 210° 210° 4 kt METAR EGCC 171420Z 21004KT 170V240 CAVOK 22/13 Q1020 NOSIG
14:50
V
21 °C 10 km+ - 220° 220° 3 kt METAR EGCC 171350Z AUTO 22003KT 150V330 9999 NCD 21/12 Q1020 NOSIG
14:20
V
21 °C 10 km+ - Var Var 2 kt METAR EGCC 171320Z AUTO VRB02KT 9999 FEW045 21/13 Q1020
13:50
V
21 °C 10 km+ - Var Var 3 kt METAR EGCC 171250Z AUTO VRB03KT 9999 NCD 21/13 Q1020 NOSIG
13:20
V
20 °C 10 km+ - 250° 250° 4 kt METAR EGCC 171220Z AUTO 25004KT 210V290 9999 NCD 20/13 Q1020
12:50
V
20 °C 10 km+ - 220° 220° 5 kt METAR EGCC 171150Z AUTO 22005KT 190V260 9999 NCD 20/12 Q1020 NOSIG
12:20
V
19 °C 10 km+ - 250° 250° 5 kt METAR EGCC 171120Z AUTO 25005KT 9999 SCT031 19/13 Q1020
11:50
V
19 °C 10 km+ - 230° 230° 5 kt METAR EGCC 171050Z AUTO 23005KT 180V320 9999 FEW048 19/13 Q1020 NOSIG
11:20
V
19 °C 10 km+ - Var Var 3 kt METAR EGCC 171020Z AUTO VRB03KT 9999 FEW025 19/13 Q1020
10:50
V
18 °C 10 km+ - Var Var 3 kt METAR EGCC 170950Z AUTO VRB03KT 9999 R23L/1400U SCT021 18/13 Q1020 NOSIG
10:20
V
18 °C 10 km+ - 240° 240° 4 kt METAR EGCC 170920Z AUTO 24004KT 190V300 9999 SCT018 18/13 Q1020 NOSIG
09:50
V
17 °C 10 km+ - Var Var 3 kt METAR EGCC 170850Z AUTO VRB03KT 9999 SCT018 17/13 Q1020
09:20
V
17 °C 10 km+ - 210° 210° 3 kt METAR EGCC 170820Z AUTO 21003KT 150V270 9999 NCD 17/13 Q1020
08:50
V
16 °C 10 km+ - 180° 180° 3 kt METAR EGCC 170750Z AUTO 18003KT 120V240 9999 FEW019 16/13 Q1020 NOSIG
08:20
V
15 °C 10 km+ - 170° 170° 3 kt METAR EGCC 170720Z AUTO 17003KT 120V230 9999 SCT020 15/13 Q1019
07:50
V
14 °C 10 km+ - Var Var 2 kt METAR EGCC 170650Z AUTO VRB02KT 9999 SCT020 14/12 Q1019 NOSIG
07:20
V
13 °C 10 km+ - 170° 170° 3 kt METAR EGCC 170620Z AUTO 17003KT 130V210 9999 NCD 13/12 Q1019
06:50
V
13 °C 10 km+ - Var Var 2 kt METAR EGCC 170550Z AUTO VRB02KT 9999 FEW034 13/12 Q1018
06:20
V
12 °C 10 km+ - Var Var 2 kt METAR EGCC 170520Z VRB02KT 9999 FEW030 12/11 Q1018
05:50
M
12 °C 5 km 3.000 ft 170° 170° 3 kt METAR EGCC 170450Z 17003KT 5000 BR BKN030 OVC039 12/12 Q1018 BECMG 9999 NSW
05:20
M
12 °C 8 km 2.800 ft 170° 170° 4 kt METAR EGCC 170420Z 17004KT 8000 BKN028 OVC037 12/12 Q1018
04:50
M
11 °C 5 km 3.500 ft 150° 150° 3 kt METAR EGCC 170350Z AUTO 15003KT 5000 BR BKN035 BKN041 11/11 Q1018 BECMG 9999 NSW
04:20
I
11 °C 3,8 km - 160° 160° 3 kt METAR EGCC 170320Z AUTO 16003KT 3800 BR SCT008 11/10 Q1018 TEMPO BKN008
03:50
M
12 °C 7 km - 160° 160° 3 kt METAR EGCC 170250Z AUTO 16003KT 7000 SCT008 12/11 Q1018 NOSIG
03:20
M
12 °C 9 km 1.000 ft 170° 170° 3 kt METAR EGCC 170220Z 17003KT 9000 BKN010 BKN016 BKN021 12/12 Q1018
02:50
M
10 °C 6 km 1.400 ft 180° 180° 2 kt METAR EGCC 170150Z 18002KT 6000 BKN014 10/10 Q1018
02:20
I
11 °C 1,9 km - 180° 180° 3 kt METAR EGCC 170120Z AUTO 18003KT 1900 BR NCD 11/10 Q1017
01:50
V
12 °C 10 km+ - 160° 160° 3 kt METAR EGCC 170050Z AUTO 16003KT 9999 NCD 12/11 Q1017 NOSIG
01:20
V
12 °C 10 km+ - 160° 160° 3 kt METAR EGCC 170020Z AUTO 16003KT 9999 NCD 12/11 Q1017
00:50
V
12 °C 10 km+ - 230° 230° 3 kt METAR EGCC 162350Z AUTO 23003KT 9999 NCD 12/11 Q1017 NOSIG
00:20
V
12 °C 10 km+ - 220° 220° 3 kt METAR EGCC 162320Z AUTO 22003KT 9999 NCD 12/11 Q1017

16 juillet 2024

Temps Code Temps Temp. Vue Base cloud Vent METAR/SPECI
23:50
M
13 °C 10 km+ 1.900 ft 220° 220° 2 kt METAR EGCC 162250Z AUTO 22002KT 9999 BKN019 13/11 Q1016
23:20
V
14 °C 10 km+ - 210° 210° 2 kt METAR EGCC 162220Z AUTO 21002KT 9999 SCT024 14/11 Q1016
22:50
M
15 °C 10 km+ 2.600 ft 280° 280° 3 kt METAR EGCC 162150Z AUTO 28003KT 9999 FEW020 OVC026 15/12 Q1016
22:20
M
15 °C 10 km+ 2.500 ft 250° 250° 4 kt METAR EGCC 162120Z AUTO 25004KT 9999 BKN025 OVC029 15/12 Q1016
21:50
M
15 °C 10 km+ 2.300 ft 270° 270° 5 kt METAR EGCC 162050Z AUTO 27005KT 9999 OVC023 15/12 Q1015
21:20
M
15 °C 10 km+ 2.000 ft 290° 290° 7 kt METAR EGCC 162020Z AUTO 29007KT 9999 OVC020 15/12 Q1015
20:50
M
15 °C 10 km+ 1.600 ft 290° 290° 9 kt METAR EGCC 161950Z AUTO 29009KT 9999 OVC016 15/12 Q1015
20:20
M
15 °C 10 km+ 1.500 ft 300° 300° 10 kt METAR EGCC 161920Z AUTO 30010KT 9999 -RA OVC015 15/12 Q1015
19:50
V
15 °C 10 km+ - 290° 290° 9 kt METAR EGCC 161850Z 29009KT 9999 SCT015 SCT021 15/12 Q1014
19:20
M
15 °C 10 km+ 1.400 ft 290° 290° 10 kt METAR EGCC 161820Z AUTO 29010KT 9999 BKN014 OVC019 15/12 Q1014
18:50
V
16 °C 10 km+ - 290° 290° 9 kt METAR EGCC 161750Z 29009KT 9999 SCT013 SCT020 16/13 Q1013 NOSIG
18:20
V
16 °C 10 km+ - 290° 290° 8 kt METAR EGCC 161720Z 29008KT 9999 SCT013 SCT020 16/13 Q1013
17:50
V
16 °C 10 km+ - 280° 280° 9 kt METAR EGCC 161650Z 28009KT 9999 SCT015 SCT021 16/13 Q1013 NOSIG
17:20
V
16 °C 10 km+ - 290° 290° 11 kt METAR EGCC 161620Z 29011KT 9999 SCT013 SCT020 16/13 Q1013
16:50
V
17 °C 10 km+ - 290° 290° 12 kt METAR EGCC 161550Z 29012KT 9999 VCSH SCT014 SCT024 17/13 Q1012
16:20
V
17 °C 10 km+ - 290° 290° 13 kt METAR EGCC 161520Z 29013KT 9999 SCT017 SCT024 17/13 Q1012 TEMPO SHRA
15:50
V
18 °C 10 km+ - 270° 270° 11 kt METAR EGCC 161450Z 27011KT 9999 SCT017 18/14 Q1012
15:20
V
18 °C 10 km+ - 270° 270° 15 kt METAR EGCC 161420Z 27015KT 9999 SCT018 18/14 Q1011
14:50
V
18 °C 10 km+ - 290° 290° 11 kt METAR EGCC 161350Z 29011KT 9999 VCSH SCT015CB 18/14 Q1011 TEMPO SHRA
14:20
V
18 °C 10 km+ - 280° 280° 11 kt METAR EGCC 161320Z 28011KT 9999 VCSH SCT018CB SCT042 18/15 Q1011
13:50
V
18 °C 10 km+ - 280° 280° 14 kt METAR EGCC 161250Z 28014KT 250V310 9999 VCSH SCT018CB SCT032 18/15 Q1010
13:20
V
18 °C 10 km+ - 270° 270° 13 kt METAR EGCC 161220Z 27013KT 9999 VCSH FEW017CB SCT042 18/15 Q1010
12:50
V
17 °C 10 km+ - 250° 250° 8 kt METAR EGCC 161150Z 25008KT 9999 VCSH FEW017CB SCT049 17/15 Q1009 TEMPO SHRA
12:20
V
18 °C 10 km+ - 250° 250° 6 kt METAR EGCC 161120Z 25006KT 230V290 9999 -SHRA SCT018CB 18/14 Q1009
11:50
V
18 °C 10 km+ - 280° 280° 7 kt METAR EGCC 161050Z 28007KT 9999 VCSH SCT012CB 18/15 Q1009 NOSIG
11:20
M
17 °C 10 km+ 1.300 ft 280° 280° 6 kt METAR EGCC 161020Z AUTO 28006KT 9999 SCT009 BKN013 17/15 Q1009
10:50
V
16 °C 10 km+ 4.800 ft Var Var 2 kt METAR EGCC 160950Z AUTO VRB02KT 9999 FEW007 BKN048 16/14 Q1008 NOSIG
10:20
V
16 °C 10 km+ 4.100 ft 230° 230° 3 kt METAR EGCC 160920Z 23003KT 190V260 9999 FEW007 BKN041 16/14 Q1008
09:50
V
15 °C 10 km+ 3.700 ft 300° 300° 4 kt METAR EGCC 160850Z 30004KT 9999 FEW007 BKN037 15/14 Q1008
09:20
V
15 °C 10 km+ 3.100 ft 020° 020° 6 kt METAR EGCC 160820Z AUTO 02006KT 9999 FEW009 OVC031 15/14 Q1008
08:50
V
15 °C 9 km 3.500 ft 020° 020° 5 kt METAR EGCC 160750Z 02005KT 9000 SCT006 BKN035 15/14 Q1007 RERA REDZ NOSIG
08:20
I
15 °C 4,3 km 800 ft 020° 020° 8 kt METAR EGCC 160720Z 02008KT 4300 RADZ BKN008 15/14 Q1007
07:50
I
15 °C 3,7 km 3.400 ft 010° 010° 8 kt METAR EGCC 160650Z 01008KT 3700 RADZ SCT004 BKN034 15/14 Q1007 REDZ TEMPO 5000 -RADZ
07:20
I
14 °C 2,8 km 3.100 ft 010° 010° 9 kt METAR EGCC 160620Z AUTO 01009KT 2800 +RA FEW004 SCT012 OVC031 14/14 Q1006 REDZ
06:50
I
15 °C 2,9 km 2.400 ft 010° 010° 8 kt METAR EGCC 160550Z 01008KT 2900 RADZ BKN024 15/14 Q1006 REDZ
06:20
M
15 °C 5 km 2.800 ft 030° 030° 6 kt METAR EGCC 160520Z 03006KT 5000 -RADZ BKN028 15/14 Q1005
05:50
M
14 °C 9 km 2.400 ft 040° 040° 6 kt METAR EGCC 160450Z AUTO 04006KT 9000 -RA BKN024/// OVC028/// //////TCU 14/14 Q1005
05:20
M
14 °C 7 km 2.200 ft 040° 040° 6 kt METAR EGCC 160420Z AUTO 04006KT 7000 -RA OVC022/// //////TCU 14/14 Q1005
04:50
M
14 °C 7 km 2.300 ft 030° 030° 7 kt METAR EGCC 160350Z AUTO 03007KT 7000 -RA OVC023/// //////TCU 14/14 Q1004 RERA TEMPO 3000 +RA BKN010
04:20
I
14 °C 4,8 km 2.400 ft 050° 050° 5 kt METAR EGCC 160320Z AUTO 05005KT 4800 RA BKN024/// OVC044/// //////TCU 14/14 Q1004
03:50
I
14 °C 4,6 km 2.700 ft 060° 060° 4 kt METAR EGCC 160250Z AUTO 06004KT 4600 RA BKN027/// //////TCU 14/14 Q1004 TEMPO 5000 -RA
03:20
I
14 °C 4,4 km 3.100 ft 060° 060° 5 kt METAR EGCC 160220Z 06005KT 4400 RA BKN031TCU BKN044 14/14 Q1004
02:50
I
14 °C 4 km 2.500 ft 060° 060° 6 kt METAR EGCC 160150Z 06006KT 4000 RA BKN025TCU BKN031 OVC045 14/14 Q1004 TEMPO BKN014
02:20
I
14 °C 4,3 km 2.500 ft 050° 050° 6 kt METAR EGCC 160120Z AUTO 05006KT 4300 -DZ FEW012/// SCT021/// BKN025/// //////TCU 14/14 Q1004
01:50
M
14 °C 7 km 2.200 ft 040° 040° 6 kt METAR EGCC 160050Z AUTO 04006KT 7000 -RA SCT016/// BKN022/// OVC033/// //////CB 14/14 Q1005 TEMPO RA BKN014
01:20
M
14 °C 7 km 2.100 ft 050° 050° 7 kt METAR EGCC 160020Z AUTO 05007KT 7000 -RA BKN021/// //////CB 14/14 Q1005 RERA
00:50
I
15 °C 3,9 km 2.100 ft 050° 050° 7 kt METAR EGCC 152350Z AUTO 05007KT 3900 RA BKN021/// OVC027/// //////CB 15/14 Q1005 TEMPO 5000 -RA
00:20
V
15 °C 10 km+ 3.100 ft 060° 060° 7 kt METAR EGCC 152320Z AUTO 06007KT 9999 -RA OVC031/// //////CB 15/14 Q1005

15 juillet 2024

Temps Code Temps Temp. Vue Base cloud Vent METAR/SPECI
23:50
M
15 °C 6 km 3.300 ft 050° 050° 6 kt METAR EGCC 152250Z AUTO 05006KT 6000 -RA OVC033/// //////TCU 15/14 Q1005 TEMPO 4000 RA BKN014
23:20
M
15 °C 7 km 3.500 ft 050° 050° 7 kt METAR EGCC 152220Z AUTO 05007KT 7000 -RA FEW018/// OVC035/// //////CB 15/14 Q1005
22:50
M
15 °C 6 km 4.000 ft 050° 050° 6 kt METAR EGCC 152150Z AUTO 05006KT 6000 -RA BKN040/// //////CB 15/14 Q1005 TEMPO RA BKN014
22:20
V
15 °C 10 km+ 3.400 ft 080° 080° 5 kt METAR EGCC 152120Z AUTO 08005KT 9999 -RA BKN034/// BKN042/// //////CB 15/14 Q1005 RERA
21:50
I
15 °C 3,8 km 3.600 ft 070° 070° 4 kt METAR EGCC 152050Z AUTO 07004KT 3800 RA BKN036 15/14 Q1005 TEMPO 5000 -RA
21:20
V
15 °C 10 km+ 4.100 ft 060° 060° 5 kt METAR EGCC 152020Z AUTO 06005KT 9999 -RA BKN041 OVC047 15/14 Q1005
20:50
V
16 °C 10 km+ 4.100 ft 070° 070° 4 kt METAR EGCC 151950Z AUTO 07004KT 9999 -RA BKN041 16/14 Q1006 TEMPO RA
20:20
V
16 °C 10 km+ 3.400 ft Var Var 2 kt METAR EGCC 151920Z AUTO VRB02KT 9999 -RA BKN034 OVC044 16/14 Q1006
19:50
V
16 °C 10 km+ - Var Var 2 kt METAR EGCC 151850Z VRB02KT 9999 -RA FEW042TCU 16/14 Q1006 TEMPO RA
19:20
V
17 °C 10 km+ - 070° 070° 4 kt METAR EGCC 151820Z 07004KT 9999 -RA FEW058TCU 17/14 Q1006
18:50
V
17 °C 10 km+ - 070° 070° 4 kt METAR EGCC 151750Z AUTO 07004KT 9999 -RA //////TCU 17/14 Q1006 TEMPO RA
18:20
V
18 °C 10 km+ - 090° 090° 4 kt METAR EGCC 151720Z 09004KT 9999 -RA FEW055TCU 18/13 Q1006
17:50
V
19 °C 10 km+ - 090° 090° 4 kt METAR EGCC 151650Z 09004KT 050V130 CAVOK 19/12 Q1006
17:20
V
19 °C 10 km+ - Var Var 4 kt METAR EGCC 151620Z VRB04KT CAVOK 19/13 Q1006
16:50
V
19 °C 10 km+ - 070° 070° 7 kt METAR EGCC 151550Z 07007KT CAVOK 19/13 Q1007 TEMPO RA
16:20
V
19 °C 10 km+ - 080° 080° 4 kt METAR EGCC 151520Z 08004KT 060V130 CAVOK 19/12 Q1007
15:50
V
19 °C 10 km+ - Var Var 2 kt METAR EGCC 151450Z AUTO VRB02KT 9999 -RA NCD 19/12 Q1007 NOSIG
15:20
V
19 °C 10 km+ - 130° 130° 3 kt METAR EGCC 151420Z 13003KT 070V190 9999 FEW049 19/13 Q1008
14:50
V
19 °C 10 km+ - 160° 160° 3 kt METAR EGCC 151350Z 16003KT 110V200 9999 -SHRA FEW044 19/13 Q1008
14:20
V
20 °C 10 km+ - 140° 140° 3 kt METAR EGCC 151320Z 14003KT 100V170 9999 FEW042 20/12 Q1008
13:50
V
20 °C 10 km+ - 160° 160° 3 kt METAR EGCC 151250Z AUTO 16003KT 100V250 9999 FEW040 20/12 Q1008 TEMPO RA
13:20
V
20 °C 10 km+ - Var Var 4 kt METAR EGCC 151220Z VRB04KT 9999 FEW038 20/12 Q1008
12:50
V
21 °C 10 km+ - 140° 140° 4 kt METAR EGCC 151150Z 14004KT 050V200 9999 FEW038 21/12 Q1008 NOSIG
12:20
V
21 °C 10 km+ - 130° 130° 4 kt METAR EGCC 151120Z 13004KT 060V190 9999 SCT036 21/12 Q1009
11:50
V
20 °C 10 km+ - Var Var 3 kt METAR EGCC 151050Z VRB03KT 9999 SCT035 20/12 Q1009 NOSIG
11:20
V
20 °C 10 km+ - 180° 180° 5 kt METAR EGCC 151020Z 18005KT 100V230 9999 SCT033 20/13 Q1009
10:50
V
20 °C 10 km+ - Var Var 2 kt METAR EGCC 150950Z VRB02KT 9999 SCT031 20/12 Q1009
10:20
V
19 °C 10 km+ - 160° 160° 3 kt METAR EGCC 150920Z 16003KT 090V200 9999 FEW026 19/13 Q1009 NOSIG
09:50
V
19 °C 10 km+ - Var Var 3 kt METAR EGCC 150850Z AUTO VRB03KT 9999 NCD 19/13 Q1009 NOSIG
09:20
V
18 °C 10 km+ - Var Var 2 kt METAR EGCC 150820Z AUTO VRB02KT 9999 NCD 18/13 Q1010 NOSIG
08:50
V
17 °C 10 km+ - Var Var 2 kt METAR EGCC 150750Z AUTO VRB02KT 9999 NCD 17/12 Q1010 NOSIG
08:20
V
16 °C 10 km+ - Var Var 1 kt METAR EGCC 150720Z AUTO VRB01KT 9999 NCD 16/12 Q1010
07:50
V
15 °C 10 km+ - Var Var 2 kt METAR EGCC 150650Z AUTO VRB02KT 9999 NCD 15/12 Q1010
07:20
V
13 °C 10 km+ - 080° 080° 3 kt METAR EGCC 150620Z AUTO 08003KT 9999 NCD 13/12 Q1010
06:50
V
12 °C 10 km+ - Var Var 2 kt METAR EGCC 150550Z AUTO VRB02KT 9999 NCD 12/11 Q1010
Signaler les modifications